createdAt,value
2022-09-28T00:14:17.825Z,11.41
2022-09-28T00:25:41.848Z,11.38
2022-09-28T00:28:26.279Z,11.54
2022-09-28T00:34:54.050Z,11.29
2022-09-28T00:37:44.715Z,11.45
2022-09-28T00:45:21.962Z,11.40
2022-09-28T00:48:17.369Z,11.20
2022-09-28T01:12:17.369Z,10.96
2022-09-28T01:15:14.815Z,10.99
2022-09-28T01:17:53.932Z,11.14
2022-09-28T01:20:53.721Z,10.96
2022-09-28T01:26:48.779Z,11.04
2022-09-28T01:29:21.714Z,10.97
2022-09-28T01:32:00.589Z,10.84
2022-09-28T01:34:37.017Z,10.79
2022-09-28T01:37:10.118Z,10.83
2022-09-28T01:43:05.092Z,10.67
2022-09-28T01:48:46.879Z,10.86
2022-09-28T01:51:23.295Z,10.63
2022-09-28T01:53:54.506Z,10.70
2022-09-28T01:56:33.406Z,10.62
2022-09-28T01:59:20.855Z,10.54
2022-09-28T02:02:01.772Z,10.53
2022-09-28T02:04:37.067Z,10.76
2022-09-28T02:07:08.940Z,10.65
2022-09-28T02:09:45.033Z,10.74
2022-09-28T02:12:19.107Z,10.57
2022-09-28T02:14:58.077Z,10.56
2022-09-28T02:17:28.229Z,10.52
2022-09-28T02:20:01.850Z,10.50
2022-09-28T02:22:35.842Z,10.49
2022-09-28T02:25:27.757Z,10.42
2022-09-28T02:28:08.831Z,10.51
2022-09-28T02:33:40.559Z,10.55
2022-09-28T02:36:16.050Z,10.36
2022-09-28T02:38:44.977Z,10.34
2022-09-28T02:41:18.437Z,10.52
2022-09-28T02:44:16.634Z,10.49
2022-09-28T02:47:00.388Z,10.33
2022-09-28T02:49:54.325Z,10.44
2022-09-28T02:52:40.417Z,10.26
2022-09-28T02:55:31.829Z,10.41
2022-09-28T02:58:17.143Z,10.38
2022-09-28T03:01:15.154Z,10.23
2022-09-28T03:03:56.178Z,10.33
2022-09-28T03:06:31.244Z,10.25
2022-09-28T03:09:07.354Z,10.32
2022-09-28T03:11:44.748Z,10.14
2022-09-28T03:14:15.325Z,10.22
2022-09-28T03:17:01.479Z,10.03
2022-09-28T03:19:33.064Z,10.01
2022-09-28T03:22:07.174Z,10.21
2022-09-28T03:24:36.204Z,10.18
2022-09-28T03:27:03.595Z,9.99
2022-09-28T03:29:33.432Z,10.02
2022-09-28T03:32:07.467Z,10.04
2022-09-28T03:34:57.252Z,9.96
2022-09-28T03:37:25.808Z,9.84
2022-09-28T03:40:04.302Z,9.85
2022-09-28T03:42:42.231Z,9.84
2022-09-28T03:45:19.170Z,10.03
2022-09-28T03:54:01.010Z,9.69
2022-09-28T03:59:32.026Z,9.69
2022-09-28T04:02:02.104Z,9.67
2022-09-28T04:04:29.414Z,9.70
2022-09-28T04:06:57.520Z,9.87
2022-09-28T04:09:26.302Z,9.87
2022-09-28T04:12:03.706Z,9.72
2022-09-28T04:14:36.177Z,9.75
2022-09-28T04:17:08.075Z,9.84
2022-09-28T04:19:38.736Z,9.68
2022-09-28T04:22:46.698Z,9.72
2022-09-28T04:25:17.229Z,9.59
2022-09-28T04:28:13.805Z,9.72
2022-09-28T04:30:40.954Z,9.78
2022-09-28T04:33:07.879Z,9.80
2022-09-28T04:35:37.192Z,9.81
2022-09-28T04:38:04.333Z,9.82
2022-09-28T04:40:31.495Z,9.67
2022-09-28T04:43:00.893Z,9.78
2022-09-28T04:45:29.009Z,9.78
2022-09-28T04:48:02.432Z,9.75
2022-09-28T04:50:54.200Z,9.76
2022-09-28T04:53:22.867Z,9.72
2022-09-28T04:56:00.920Z,9.75
2022-09-28T04:58:29.176Z,9.70
2022-09-28T05:01:07.736Z,9.81
2022-09-28T05:03:55.094Z,9.72
2022-09-28T05:06:33.886Z,9.74
2022-09-28T05:09:06.565Z,9.72
2022-09-28T05:11:36.183Z,9.73
2022-09-28T05:14:06.703Z,9.56
2022-09-28T05:16:35.137Z,9.54
2022-09-28T05:19:20.304Z,9.69
2022-09-28T05:21:49.925Z,9.70
2022-09-28T05:24:17.023Z,9.58
2022-09-28T05:26:49.634Z,9.70
2022-09-28T05:29:17.010Z,9.58
2022-09-28T05:32:16.996Z,9.59
2022-09-28T05:34:44.004Z,9.69
2022-09-28T05:37:18.150Z,9.60
2022-09-28T05:39:46.934Z,9.62
2022-09-28T05:42:13.986Z,9.59
2022-09-28T05:44:42.986Z,9.72
2022-09-28T05:47:21.097Z,9.62
2022-09-28T05:49:56.839Z,9.57
2022-09-28T05:52:24.659Z,9.56
2022-09-28T05:54:52.914Z,9.78
2022-09-28T05:57:20.100Z,9.63
2022-09-28T05:59:49.625Z,9.72
2022-09-28T06:02:16.970Z,9.70
2022-09-28T06:04:45.382Z,9.68
2022-09-28T06:07:15.595Z,9.80
2022-09-28T06:09:44.700Z,9.71
2022-09-28T06:12:22.265Z,9.80
2022-09-28T06:14:55.910Z,9.74
2022-09-28T06:17:24.297Z,9.82
2022-09-28T06:20:11.963Z,9.69
2022-09-28T06:23:14.550Z,9.80
2022-09-28T06:25:45.894Z,9.87
2022-09-28T06:28:15.643Z,9.82
2022-09-28T06:30:43.075Z,10.03
2022-09-28T06:33:13.790Z,9.95
2022-09-28T06:35:42.336Z,10.02
2022-09-28T06:43:03.742Z,10.19
2022-09-28T06:46:02.617Z,10.14
2022-09-28T06:48:29.898Z,10.22
2022-09-28T06:50:57.031Z,10.37
2022-09-28T06:53:54.206Z,10.39
2022-09-28T06:56:41.212Z,10.35
2022-09-28T07:02:16.235Z,10.48
2022-09-28T07:05:14.445Z,10.33
2022-09-28T07:08:00.544Z,10.46
2022-09-28T07:10:47.681Z,10.54
2022-09-28T07:13:50.709Z,10.46
2022-09-28T07:16:26.439Z,10.53
2022-09-28T07:18:56.906Z,10.55
2022-09-28T07:21:29.865Z,10.59
2022-09-28T07:24:00.995Z,10.67
2022-09-28T07:27:02.000Z,10.68
2022-09-28T07:29:47.859Z,10.71
2022-09-28T07:32:32.236Z,10.95
2022-09-28T07:35:16.520Z,10.78
2022-09-28T07:37:59.674Z,10.86
2022-09-28T07:40:48.405Z,10.94
2022-09-28T07:43:20.860Z,10.99
2022-09-28T07:45:53.063Z,11.01
2022-09-28T07:48:20.566Z,11.09
2022-09-28T07:51:06.535Z,11.13
2022-09-28T07:53:43.713Z,11.19
2022-09-28T07:56:35.054Z,11.17
2022-09-28T07:59:11.002Z,11.40
2022-09-28T08:05:19.479Z,11.53
2022-09-28T08:17:26.666Z,11.67
2022-09-28T08:20:29.444Z,11.68
2022-09-28T08:22:57.495Z,11.83
2022-09-28T08:25:26.280Z,11.88
2022-09-28T08:28:00.344Z,11.97
2022-09-28T08:30:34.685Z,12.14
2022-09-28T08:33:19.670Z,12.28
2022-09-28T08:35:58.822Z,12.28
2022-09-28T08:38:48.684Z,12.35
2022-09-28T08:41:16.905Z,12.62
2022-09-28T08:44:05.416Z,12.71
2022-09-28T08:46:57.352Z,12.60
2022-09-28T08:49:47.623Z,12.70
2022-09-28T08:53:05.796Z,12.85
2022-09-28T08:56:32.824Z,13.10
2022-09-28T08:59:15.250Z,13.19
2022-09-28T09:05:15.008Z,13.42
2022-09-28T09:08:37.020Z,13.56
2022-09-28T09:11:15.455Z,13.37
2022-09-28T09:14:38.135Z,13.61
2022-09-28T09:17:34.049Z,13.73
2022-09-28T09:24:40.877Z,14.05
2022-09-28T09:28:02.660Z,14.15
2022-09-28T09:31:00.610Z,14.32
2022-09-28T09:34:44.305Z,14.39
2022-09-28T09:38:11.709Z,14.45
2022-09-28T09:41:32.773Z,14.32
2022-09-28T09:44:57.201Z,14.57
2022-09-28T09:47:46.264Z,14.66
2022-09-28T09:50:33.412Z,14.69
2022-09-28T09:53:02.264Z,14.73
2022-09-28T09:55:48.095Z,14.77
2022-09-28T09:58:42.726Z,14.66
2022-09-28T10:01:32.722Z,14.63
2022-09-28T10:04:22.198Z,14.83
2022-09-28T10:06:50.624Z,14.68
2022-09-28T10:09:22.890Z,14.95
2022-09-28T10:11:53.651Z,14.92
2022-09-28T10:14:24.686Z,14.88
2022-09-28T10:20:35.172Z,14.93
2022-09-28T10:23:30.228Z,15.12
2022-09-28T10:26:00.665Z,15.09
2022-09-28T10:28:36.079Z,15.25
2022-09-28T10:31:41.083Z,15.37
2022-09-28T10:34:29.251Z,15.47
2022-09-28T10:37:11.113Z,15.46
2022-09-28T10:40:38.097Z,15.60
2022-09-28T10:43:22.821Z,15.67
2022-09-28T10:46:00.957Z,15.86
2022-09-28T10:48:28.115Z,16.01
2022-09-28T10:51:07.690Z,16.19
2022-09-28T10:53:37.288Z,16.22
2022-09-28T10:56:20.748Z,16.31
2022-09-28T10:58:53.951Z,16.33
2022-09-28T11:01:40.667Z,16.47
2022-09-28T11:04:15.036Z,16.54
2022-09-28T11:06:42.492Z,16.57
2022-09-28T11:09:59.311Z,16.65
2022-09-28T11:12:30.977Z,16.67
2022-09-28T11:15:05.503Z,16.94
2022-09-28T11:17:47.537Z,16.92
2022-09-28T11:23:18.619Z,17.08
2022-09-28T11:26:00.468Z,17.04
2022-09-28T11:28:40.648Z,16.98
2022-09-28T11:31:13.739Z,17.08
2022-09-28T11:33:54.077Z,17.16
2022-09-28T11:36:51.788Z,17.32
2022-09-28T11:40:35.925Z,17.27
2022-09-28T11:43:39.817Z,17.25
2022-09-28T11:46:31.357Z,17.11
2022-09-28T11:49:14.163Z,17.23
2022-09-28T11:51:42.731Z,17.21
2022-09-28T11:54:57.257Z,17.32
2022-09-28T11:57:44.291Z,17.20
2022-09-28T12:00:53.964Z,17.25
2022-09-28T12:03:35.018Z,17.22
2022-09-28T12:06:07.484Z,17.25
2022-09-28T12:08:41.786Z,17.25
2022-09-28T12:11:35.572Z,17.11
2022-09-28T12:14:11.655Z,17.12
2022-09-28T12:17:07.689Z,17.12
2022-09-28T12:19:42.929Z,17.07
2022-09-28T12:22:42.992Z,17.26
2022-09-28T12:25:40.687Z,17.12
2022-09-28T12:28:19.383Z,17.21
2022-09-28T12:30:48.271Z,17.13
2022-09-28T12:33:18.549Z,17.03
2022-09-28T12:35:53.863Z,17.19
2022-09-28T13:14:43.103Z,16.72
2022-09-28T13:17:30.405Z,16.73
2022-09-28T13:23:47.798Z,16.66
2022-09-28T13:26:45.084Z,16.50
2022-09-28T13:36:47.850Z,16.68
2022-09-28T13:40:24.169Z,16.67
2022-09-28T13:43:18.871Z,16.67
2022-09-28T13:45:52.962Z,16.68
2022-09-28T13:57:32.462Z,16.76
2022-09-28T14:00:24.324Z,16.83
2022-09-28T14:03:02.447Z,16.70
2022-09-28T14:06:29.788Z,16.90
2022-09-28T14:12:39.879Z,16.90
2022-09-28T14:15:28.977Z,16.92
2022-09-28T14:18:17.417Z,16.92
2022-09-28T14:21:12.191Z,16.84
2022-09-28T14:23:59.834Z,16.92
2022-09-28T14:26:45.547Z,16.95
2022-09-28T14:29:29.484Z,16.95
2022-09-28T14:32:03.853Z,16.83
2022-09-28T14:34:57.248Z,16.87
2022-09-28T14:37:48.030Z,16.90
2022-09-28T14:41:38.945Z,16.88
2022-09-28T14:44:53.972Z,16.65
2022-09-28T14:48:08.445Z,16.63
2022-09-28T14:54:21.881Z,16.66
2022-09-28T14:56:53.166Z,16.86
2022-09-28T14:59:38.677Z,16.85
2022-09-28T15:12:04.192Z,16.59
2022-09-28T15:14:50.046Z,16.67
2022-09-28T15:28:26.318Z,16.67
2022-09-28T15:31:00.701Z,16.61
2022-09-28T15:33:48.364Z,16.76
2022-09-28T15:41:05.875Z,16.66
2022-09-28T15:44:28.016Z,16.60
2022-09-28T15:52:06.084Z,16.40
2022-09-28T15:57:40.641Z,16.50
2022-09-28T16:00:25.988Z,16.44
2022-09-28T16:03:18.266Z,16.59
2022-09-28T16:06:08.233Z,16.54
2022-09-28T16:10:04.563Z,16.52
2022-09-28T16:43:03.420Z,16.13
2022-09-28T16:45:30.635Z,16.16
2022-09-28T16:48:01.761Z,16.21
2022-09-28T16:50:32.872Z,16.20
2022-09-28T16:53:28.053Z,16.24
2022-09-28T16:55:55.395Z,16.19
2022-09-28T16:58:22.707Z,16.20
2022-09-28T17:00:50.418Z,16.21
2022-09-28T17:03:19.522Z,16.18
2022-09-28T17:15:51.317Z,16.11
2022-09-28T17:30:47.698Z,16.08
2022-09-28T17:33:16.312Z,16.09
2022-09-28T17:36:19.227Z,16.17
2022-09-28T17:38:47.328Z,16.03
2022-09-28T17:41:20.216Z,16.04
2022-09-28T17:43:49.432Z,16.03
2022-09-28T17:46:27.470Z,16.25
2022-09-28T17:48:59.694Z,16.08
2022-09-28T20:08:44.096Z,15.53
2022-09-28T20:57:42.508Z,15.55
2022-09-28T21:00:34.289Z,15.43
2022-09-28T21:03:04.283Z,15.40
2022-09-28T21:05:35.724Z,15.47
2022-09-28T21:08:03.715Z,15.53
2022-09-28T21:10:32.900Z,15.44
2022-09-28T21:13:00.117Z,15.53
2022-09-28T21:15:27.307Z,15.41
2022-09-28T21:17:54.373Z,15.43
2022-09-28T21:20:21.400Z,15.45
2022-09-28T21:22:48.456Z,15.40
2022-09-28T21:25:15.468Z,15.45
2022-09-28T21:27:42.951Z,15.45
2022-09-28T21:30:10.792Z,15.50
2022-09-28T21:32:37.785Z,15.46
2022-09-28T21:35:05.237Z,15.51
2022-09-28T21:37:32.339Z,15.52
2022-09-28T21:40:02.295Z,15.45
2022-09-28T21:42:29.416Z,15.43
2022-09-28T21:44:59.358Z,15.48
2022-09-28T21:47:27.002Z,15.44
2022-09-28T21:49:54.507Z,15.56
2022-09-28T21:52:21.822Z,15.43
2022-09-28T21:54:48.937Z,15.39
2022-09-28T21:57:19.054Z,15.34
2022-09-28T21:59:47.593Z,15.38
2022-09-28T22:02:14.583Z,15.37
2022-09-28T22:04:41.672Z,15.38
2022-09-28T22:07:09.371Z,15.39
2022-09-28T22:09:37.741Z,15.37
2022-09-28T22:12:05.867Z,15.29
2022-09-28T22:14:34.311Z,15.31
2022-09-28T22:17:01.345Z,15.43
2022-09-28T22:19:29.896Z,15.36
2022-09-28T22:21:57.211Z,15.27
2022-09-28T22:24:24.363Z,15.27
2022-09-28T22:26:51.422Z,15.27
2022-09-28T22:29:18.503Z,15.26
2022-09-28T22:31:47.264Z,15.31
2022-09-28T22:34:14.521Z,15.28
2022-09-28T22:36:41.686Z,15.22
2022-09-28T22:39:10.278Z,15.25
2022-09-28T22:41:38.918Z,15.22
2022-09-28T22:44:08.111Z,15.20
2022-09-28T22:46:37.826Z,15.20
2022-09-28T22:49:08.802Z,15.15
2022-09-28T22:51:40.567Z,15.12
2022-09-28T22:54:23.420Z,15.10
2022-09-28T22:57:11.791Z,15.10
2022-09-28T22:59:59.781Z,15.18
2022-09-28T23:02:27.556Z,15.09
2022-09-28T23:04:57.092Z,15.07
2022-09-28T23:14:20.134Z,14.96
2022-09-28T23:21:18.408Z,14.93
2022-09-28T23:38:45.090Z,14.76
2022-09-28T23:46:10.046Z,14.82
2022-09-28T23:54:45.152Z,14.71
2022-09-28T23:57:13.485Z,14.76
2022-09-28T23:59:43.330Z,14.76
